Time;durP1;ratioP1;P1;durP2;ratioP2;P2;SDS_P1;SDS_P2;PMS_P1;PMS_P2;Temp;Humidity;BMP_temperature;BMP_pressure;BME280_temperature;BME280_humidity;BME280_pressure;Samples;Min_cycle;Max_cycle;Signal;HPM_P1;HPM_P2
2021/09/15 00:01:08;;;;;;;4.97;3.88;;;15.20;92.10;;;;;;4940281;29;20031;-90
2021/09/15 00:03:36;;;;;;;6.75;4.40;;;15.20;92.00;;;;;;4940350;29;20463;-90
2021/09/15 00:06:06;;;;;;;5.22;3.95;;;15.10;91.70;;;;;;4957458;29;20454;-90
2021/09/15 00:08:32;;;;;;;5.78;3.45;;;15.10;91.70;;;;;;4939391;29;20062;-90
2021/09/15 00:10:58;;;;;;;5.47;3.42;;;15.10;91.60;;;;;;4940280;29;20027;-90
2021/09/15 00:13:24;;;;;;;5.28;3.67;;;15.00;91.60;;;;;;4940193;29;20051;-90
2021/09/15 00:15:50;;;;;;;7.93;4.22;;;15.00;91.60;;;;;;4940201;29;20070;-90
2021/09/15 00:18:15;;;;;;;5.00;3.95;;;15.00;91.40;;;;;;4940183;29;20024;-90
2021/09/15 00:20:41;;;;;;;4.18;3.47;;;14.90;91.30;;;;;;4957398;29;20023;-91
2021/09/15 00:23:07;;;;;;;5.07;3.80;;;14.90;91.10;;;;;;4940227;29;20038;-91
2021/09/15 00:25:32;;;;;;;4.57;3.55;;;14.90;91.00;;;;;;4939913;29;20035;-90
2021/09/15 00:27:58;;;;;;;4.70;2.80;;;14.80;90.90;;;;;;4939971;29;20062;-90
2021/09/15 00:30:25;;;;;;;5.32;3.30;;;14.80;90.70;;;;;;4940048;29;20035;-90
2021/09/15 00:32:50;;;;;;;4.70;3.30;;;14.80;90.60;;;;;;4940161;29;20027;-90
2021/09/15 00:35:16;;;;;;;5.10;3.30;;;14.70;90.40;;;;;;4940183;29;20034;-90
2021/09/15 00:37:42;;;;;;;5.13;3.42;;;14.70;90.20;;;;;;4973229;28;20142;-90
2021/09/15 00:40:09;;;;;;;5.50;3.75;;;14.70;89.70;;;;;;4961678;29;20031;-90
2021/09/15 00:42:35;;;;;;;4.95;2.95;;;14.70;88.90;;;;;;4959300;29;20031;-91
2021/09/15 00:45:00;;;;;;;4.85;3.17;;;14.60;88.40;;;;;;4948009;29;20067;-90
2021/09/15 00:47:26;;;;;;;4.25;3.20;;;14.60;87.80;;;;;;4956726;28;20073;-90
2021/09/15 00:49:52;;;;;;;5.53;2.67;;;14.60;85.90;;;;;;4939663;29;20035;-91
2021/09/15 00:52:18;;;;;;;3.28;2.70;;;14.50;86.10;;;;;;4939928;29;20024;-90
2021/09/15 00:54:44;;;;;;;5.22;2.67;;;14.50;83.30;;;;;;4956707;29;20023;-90
2021/09/15 00:57:10;;;;;;;3.65;2.30;;;14.50;83.10;;;;;;4939333;29;20031;-91
2021/09/15 00:59:36;;;;;;;3.70;2.45;;;14.60;82.30;;;;;;4939507;29;20040;-90
2021/09/15 01:02:02;;;;;;;4.03;2.83;;;14.60;81.70;;;;;;4939495;29;20200;-90
2021/09/15 01:04:28;;;;;;;4.05;2.28;;;14.50;80.70;;;;;;4939313;29;20027;-89
2021/09/15 01:06:54;;;;;;;3.15;2.45;;;14.50;80.50;;;;;;4957351;29;20375;-91
2021/09/15 01:09:21;;;;;;;3.90;2.47;;;14.50;80.80;;;;;;4940941;29;20070;-90
2021/09/15 01:11:47;;;;;;;4.78;2.30;;;14.50;79.60;;;;;;4941737;29;20027;-90
2021/09/15 01:14:14;;;;;;;4.18;2.75;;;14.50;79.30;;;;;;4959842;29;20033;-91
2021/09/15 01:16:52;;;;;;;3.13;2.63;;;14.50;79.30;;;;;;4941482;29;20031;-91
2021/09/15 01:19:18;;;;;;;2.95;1.98;;;14.50;79.20;;;;;;4941799;29;20138;-90
2021/09/15 01:21:46;;;;;;;3.50;2.58;;;14.50;79.30;;;;;;4942119;29;20505;-91
2021/09/15 01:24:12;;;;;;;4.72;2.70;;;14.50;79.40;;;;;;4939326;29;20518;-90
2021/09/15 01:26:38;;;;;;;5.22;2.42;;;14.40;78.50;;;;;;4939074;29;20122;-90
2021/09/15 01:29:04;;;;;;;4.15;2.78;;;14.40;79.00;;;;;;4956411;29;20058;-90
2021/09/15 01:31:30;;;;;;;2.58;2.25;;;14.40;79.00;;;;;;4938796;29;20027;-90
2021/09/15 01:33:56;;;;;;;3.72;2.28;;;14.40;79.60;;;;;;4939077;29;20032;-90
2021/09/15 01:36:22;;;;;;;3.60;2.47;;;14.40;79.60;;;;;;4956066;29;20031;-90
2021/09/15 01:38:47;;;;;;;3.22;2.50;;;14.30;79.70;;;;;;4938927;29;20482;-90
2021/09/15 01:41:13;;;;;;;3.42;2.38;;;14.30;79.50;;;;;;4938665;29;20391;-90
2021/09/15 01:43:48;;;;;;;5.57;2.45;;;14.30;79.30;;;;;;4938939;29;20023;-90
2021/09/15 01:46:14;;;;;;;4.00;2.20;;;14.30;78.60;;;;;;4938972;29;20044;-90
2021/09/15 01:48:39;;;;;;;2.55;1.58;;;14.20;78.30;;;;;;4939201;29;20402;-90
2021/09/15 01:51:05;;;;;;;4.43;1.80;;;14.20;78.10;;;;;;4941327;29;20031;-90
2021/09/15 01:53:31;;;;;;;5.18;2.13;;;14.20;77.80;;;;;;4939496;29;20038;-89
2021/09/15 01:55:56;;;;;;;3.17;2.17;;;14.20;77.70;;;;;;4939099;29;20027;-90
2021/09/15 01:58:22;;;;;;;2.88;2.13;;;14.10;77.10;;;;;;4938900;29;20105;-90
2021/09/15 02:00:48;;;;;;;4.63;2.50;;;14.10;77.30;;;;;;4938762;29;20031;-90
2021/09/15 02:03:13;;;;;;;5.20;2.45;;;14.10;76.60;;;;;;4938650;29;20115;-90
2021/09/15 02:05:39;;;;;;;4.10;2.08;;;14.10;76.30;;;;;;4938740;29;20027;-90
2021/09/15 02:08:05;;;;;;;3.88;2.33;;;14.00;76.50;;;;;;4938857;29;20390;-90
2021/09/15 02:10:30;;;;;;;5.25;2.70;;;14.00;75.40;;;;;;4938717;29;20388;-91
2021/09/15 02:12:56;;;;;;;9.52;3.40;;;14.00;75.90;;;;;;4938476;29;20027;-90
2021/09/15 02:15:22;;;;;;;4.80;2.58;;;13.90;75.70;;;;;;4938843;29;20034;-90
2021/09/15 02:17:47;;;;;;;3.30;2.10;;;13.90;75.90;;;;;;4939010;29;20039;-90
2021/09/15 02:20:13;;;;;;;3.50;2.15;;;13.90;76.50;;;;;;4955365;29;20035;-90
2021/09/15 02:22:39;;;;;;;6.50;2.55;;;13.90;76.00;;;;;;4938452;29;20078;-90
2021/09/15 02:25:07;;;;;;;2.92;2.42;;;13.80;75.70;;;;;;4938419;29;20481;-90
2021/09/15 02:27:32;;;;;;;2.38;2.00;;;13.80;75.70;;;;;;4938231;29;20035;-91
2021/09/15 02:29:58;;;;;;;3.17;2.08;;;13.70;75.90;;;;;;4938657;29;20037;-91
2021/09/15 02:32:24;;;;;;;5.38;2.25;;;13.70;76.20;;;;;;4940889;29;20035;-90
2021/09/15 02:34:50;;;;;;;2.20;2.00;;;13.60;76.60;;;;;;4959212;29;20079;-90
2021/09/15 02:37:16;;;;;;;3.75;2.13;;;13.60;77.10;;;;;;4941821;29;20134;-90
2021/09/15 02:39:41;;;;;;;3.83;2.15;;;13.60;77.10;;;;;;4959194;29;20098;-90
2021/09/15 02:42:07;;;;;;;3.13;2.38;;;13.60;76.90;;;;;;4941976;29;20035;-90
2021/09/15 02:44:33;;;;;;;4.40;2.20;;;13.50;77.00;;;;;;4941601;29;20051;-91
2021/09/15 02:46:59;;;;;;;3.88;1.77;;;13.50;76.80;;;;;;4941957;29;20035;-90
2021/09/15 02:49:27;;;;;;;2.25;1.63;;;13.50;76.60;;;;;;4941810;29;20027;-90
2021/09/15 02:51:54;;;;;;;4.70;2.20;;;13.50;76.30;;;;;;4941426;29;20100;-90
2021/09/15 02:54:20;;;;;;;3.53;2.00;;;13.40;76.10;;;;;;4941884;29;20027;-91
2021/09/15 02:56:46;;;;;;;2.75;2.10;;;13.40;76.10;;;;;;4958969;29;20027;-90
2021/09/15 02:59:12;;;;;;;4.32;2.03;;;13.40;75.70;;;;;;4941665;29;20046;-90
2021/09/15 03:01:37;;;;;;;3.08;1.73;;;13.40;75.40;;;;;;4941515;29;20035;-90
2021/09/15 03:04:03;;;;;;;2.47;2.05;;;13.40;75.40;;;;;;4941782;29;20027;-90
2021/09/15 03:06:29;;;;;;;1.85;1.55;;;13.40;75.60;;;;;;4941590;29;20095;-90
2021/09/15 03:08:55;;;;;;;3.72;1.77;;;13.40;75.50;;;;;;4941570;29;20035;-90
2021/09/15 03:11:21;;;;;;;3.30;1.52;;;13.30;75.70;;;;;;4941204;29;20114;-90
2021/09/15 03:13:46;;;;;;;3.50;1.85;;;13.30;74.90;;;;;;4941479;29;20118;-90
2021/09/15 03:16:16;;;;;;;3.10;1.85;;;13.30;74.00;;;;;;4941788;29;20122;-89
2021/09/15 03:18:41;;;;;;;2.25;1.38;;;13.30;73.50;;;;;;4940994;29;20050;-90
2021/09/15 03:21:07;;;;;;;2.65;1.60;;;13.30;73.80;;;;;;4941102;29;20031;-89
2021/09/15 03:23:33;;;;;;;5.78;2.10;;;13.30;73.90;;;;;;4940833;29;20035;-90
2021/09/15 03:25:59;;;;;;;3.70;1.13;;;13.30;74.00;;;;;;4941834;29;20363;-90
2021/09/15 03:28:25;;;;;;;3.30;1.15;;;13.30;73.80;;;;;;4941825;29;20031;-90
2021/09/15 03:30:50;;;;;;;2.15;1.75;;;13.20;73.70;;;;;;4958486;29;20051;-90
2021/09/15 03:33:16;;;;;;;6.72;1.77;;;13.30;73.90;;;;;;4941143;29;20026;-90
2021/09/15 03:35:42;;;;;;;2.17;1.88;;;13.20;73.90;;;;;;4940919;29;20027;-90
2021/09/15 03:38:08;;;;;;;3.33;1.55;;;13.20;74.00;;;;;;4940781;29;20051;-90
2021/09/15 03:40:33;;;;;;;3.28;1.73;;;13.20;74.50;;;;;;4940830;29;20039;-90
2021/09/15 03:42:59;;;;;;;3.45;2.25;;;13.10;74.40;;;;;;4940944;29;20035;-90
2021/09/15 03:45:25;;;;;;;5.65;1.85;;;13.10;74.70;;;;;;4941255;29;20064;-90
2021/09/15 03:47:50;;;;;;;2.53;1.90;;;13.20;74.90;;;;;;4940603;29;20360;-90
2021/09/15 03:50:16;;;;;;;2.45;1.58;;;13.20;75.10;;;;;;4940896;29;20042;-90
2021/09/15 03:52:42;;;;;;;2.67;1.77;;;13.20;75.30;;;;;;4940651;29;20126;-89
2021/09/15 03:55:08;;;;;;;2.97;1.92;;;13.20;75.30;;;;;;4940206;29;20504;-90
2021/09/15 03:57:34;;;;;;;3.63;2.33;;;13.30;75.70;;;;;;4957689;29;20499;-89
2021/09/15 03:59:59;;;;;;;3.40;2.28;;;13.30;75.40;;;;;;4940969;29;20042;-90
2021/09/15 04:02:25;;;;;;;3.72;1.92;;;13.30;75.30;;;;;;4940564;29;20055;-89
2021/09/15 04:04:51;;;;;;;3.60;2.38;;;13.30;75.40;;;;;;4957354;29;20062;-90
2021/09/15 04:07:17;;;;;;;2.40;2.20;;;13.30;75.40;;;;;;4940270;29;20066;-90
2021/09/15 04:09:42;;;;;;;2.80;1.83;;;13.40;75.50;;;;;;4939996;29;20126;-90
2021/09/15 04:12:08;;;;;;;3.03;2.05;;;13.40;75.80;;;;;;4940604;29;20038;-90
2021/09/15 04:14:34;;;;;;;5.00;2.25;;;13.40;75.80;;;;;;4940131;29;20032;-90
2021/09/15 04:17:00;;;;;;;1.88;1.70;;;13.50;75.90;;;;;;4940259;29;20035;-90
2021/09/15 04:19:26;;;;;;;3.00;2.20;;;13.50;76.10;;;;;;4940344;29;20063;-90
2021/09/15 04:21:52;;;;;;;3.03;2.13;;;13.50;76.20;;;;;;4957178;29;20039;-90
2021/09/15 04:31:14;;;;;;;4.70;2.35;;;13.60;76.30;;;;;;4957229;29;20074;-90
2021/09/15 04:32:28;;;;;;;2.38;2.10;;;13.70;77.10;;;;;;4957161;29;20031;-90
2021/09/15 04:34:54;;;;;;;4.65;2.38;;;13.80;76.80;;;;;;4939524;29;20027;-90
2021/09/15 04:37:20;;;;;;;5.10;2.45;;;13.80;76.70;;;;;;4940706;29;20047;-90
2021/09/15 04:39:45;;;;;;;2.95;2.20;;;13.90;76.40;;;;;;4939980;29;20039;-90
2021/09/15 04:42:11;;;;;;;2.63;1.52;;;13.90;76.50;;;;;;4957228;29;20039;-90
2021/09/15 04:44:37;;;;;;;3.67;1.80;;;13.90;76.60;;;;;;4940552;29;20059;-90
2021/09/15 04:47:03;;;;;;;3.80;2.40;;;14.00;76.60;;;;;;4940785;29;20066;-89
2021/09/15 04:49:28;;;;;;;3.17;2.20;;;14.00;76.40;;;;;;4940710;29;20390;-90
2021/09/15 04:51:54;;;;;;;3.00;1.88;;;14.00;76.60;;;;;;4940695;29;20027;-90
2021/09/15 04:54:20;;;;;;;3.92;2.47;;;14.10;76.50;;;;;;4939040;29;20027;-90
2021/09/15 04:56:45;;;;;;;4.25;2.38;;;14.10;76.40;;;;;;4939567;29;20023;-90
2021/09/15 04:59:11;;;;;;;4.85;2.38;;;14.10;76.40;;;;;;4957138;29;20459;-90
2021/09/15 05:01:37;;;;;;;3.53;2.30;;;14.20;76.40;;;;;;4958802;29;20028;-90
2021/09/15 05:04:03;;;;;;;4.43;2.20;;;14.20;76.40;;;;;;4940782;29;20035;-90
2021/09/15 05:06:28;;;;;;;2.58;2.22;;;14.20;76.30;;;;;;4942396;29;20042;-90
2021/09/15 05:08:54;;;;;;;3.67;2.47;;;14.30;76.40;;;;;;4957494;29;20487;-89
2021/09/15 05:11:20;;;;;;;2.05;1.70;;;14.30;76.40;;;;;;4939220;29;20383;-89
2021/09/15 05:13:45;;;;;;;3.88;2.00;;;14.30;76.10;;;;;;4956748;29;20027;-90
2021/09/15 05:16:11;;;;;;;3.33;1.98;;;14.40;76.00;;;;;;4939626;29;20029;-90
2021/09/15 05:18:37;;;;;;;3.80;2.40;;;14.50;75.80;;;;;;4939005;29;20142;-89
2021/09/15 05:21:02;;;;;;;2.80;2.17;;;14.60;75.50;;;;;;4956535;29;20112;-89
2021/09/15 05:23:28;;;;;;;3.22;1.75;;;14.80;75.20;;;;;;4939765;29;20031;-92
2021/09/15 05:25:54;;;;;;;2.50;1.83;;;14.90;74.90;;;;;;4938781;29;20462;-90
2021/09/15 05:28:19;;;;;;;5.30;2.78;;;15.00;74.30;;;;;;4938727;29;20042;-89
2021/09/15 05:30:47;;;;;;;3.63;1.50;;;15.10;73.50;;;;;;4939001;29;20473;-89
2021/09/15 05:33:13;;;;;;;3.13;2.25;;;15.20;73.70;;;;;;4938768;29;20089;-90
2021/09/15 05:35:38;;;;;;;2.40;1.73;;;15.30;73.40;;;;;;4938814;29;20055;-89
2021/09/15 05:38:04;;;;;;;5.50;2.53;;;15.30;72.50;;;;;;4939481;29;20051;-90
2021/09/15 05:40:30;;;;;;;3.92;2.10;;;15.40;72.70;;;;;;4939422;29;20062;-90
2021/09/15 05:42:56;;;;;;;4.72;1.90;;;15.40;71.00;;;;;;4956191;29;20081;-90
2021/09/15 05:45:21;;;;;;;4.05;2.05;;;15.40;70.70;;;;;;4939350;29;20166;-89
2021/09/15 05:47:47;;;;;;;3.15;2.00;;;15.40;69.90;;;;;;4938874;29;20047;-90
2021/09/15 05:50:13;;;;;;;2.45;1.80;;;15.40;70.50;;;;;;4938698;29;20434;-89
2021/09/15 05:52:38;;;;;;;3.00;2.25;;;15.40;69.70;;;;;;4938851;29;20092;-89
2021/09/15 05:55:08;;;;;;;1.65;1.55;;;15.40;68.90;;;;;;4941716;29;20027;-89
2021/09/15 05:57:34;;;;;;;2.95;2.15;;;15.50;69.60;;;;;;4938984;29;20431;-88
2021/09/15 06:00:02;;;;;;;2.08;1.65;;;15.50;70.20;;;;;;4957330;29;20042;-90
2021/09/15 06:02:27;;;;;;;2.40;2.10;;;15.70;69.20;;;;;;4945085;29;20464;-89
2021/09/15 06:04:53;;;;;;;1.52;1.40;;;15.80;68.50;;;;;;4941662;29;20104;-89
2021/09/15 06:07:21;;;;;;;2.42;1.40;;;15.80;68.70;;;;;;4967016;28;20028;-91
2021/09/15 06:09:47;;;;;;;1.92;1.40;;;15.90;68.10;;;;;;4955358;28;20047;-91
2021/09/15 06:12:12;;;;;;;1.80;1.67;;;15.90;65.80;;;;;;4959433;28;20075;-90
2021/09/15 06:14:39;;;;;;;4.13;1.58;;;15.90;65.40;;;;;;4960382;28;20041;-90
2021/09/15 06:17:06;;;;;;;3.00;1.85;;;15.90;65.10;;;;;;4942119;29;20031;-91
2021/09/15 06:19:32;;;;;;;2.17;1.52;;;15.90;65.50;;;;;;4943010;29;20084;-91
2021/09/15 06:21:58;;;;;;;1.55;1.45;;;16.00;65.70;;;;;;4943227;29;20104;-92
2021/09/15 06:24:24;;;;;;;2.95;1.58;;;16.10;65.80;;;;;;4941981;29;20063;-91
2021/09/15 06:26:51;;;;;;;3.17;1.27;;;16.20;65.80;;;;;;4950141;28;20459;-92
2021/09/15 06:29:18;;;;;;;3.50;1.67;;;16.30;64.40;;;;;;4944245;29;20379;-91
2021/09/15 06:31:44;;;;;;;2.88;1.40;;;16.40;64.20;;;;;;4952719;29;20434;-91
2021/09/15 06:34:11;;;;;;;1.30;1.23;;;16.50;64.70;;;;;;4949799;29;20035;-91
2021/09/15 06:36:40;;;;;;;2.55;1.40;;;16.60;64.40;;;;;;4941565;29;20042;-90
2021/09/15 06:39:07;;;;;;;1.90;1.38;;;16.70;64.30;;;;;;4941624;29;20039;-91
2021/09/15 06:41:33;;;;;;;2.28;1.35;;;16.80;63.40;;;;;;4941476;29;20039;-91
2021/09/15 06:43:59;;;;;;;1.65;1.48;;;16.70;60.60;;;;;;4941653;29;20032;-91
2021/09/15 06:46:25;;;;;;;1.58;1.30;;;16.70;61.10;;;;;;4941693;29;20165;-91
2021/09/15 06:48:51;;;;;;;3.20;1.95;;;16.70;61.40;;;;;;4923034;29;20061;-90
2021/09/15 06:51:17;;;;;;;1.85;1.45;;;16.70;61.70;;;;;;4922221;29;20024;-90
2021/09/15 06:53:43;;;;;;;2.05;1.65;;;16.70;60.80;;;;;;4944655;28;20498;-89
2021/09/15 06:56:09;;;;;;;2.17;1.52;;;16.70;60.20;;;;;;4949393;29;20059;-91
2021/09/15 06:58:35;;;;;;;3.53;1.45;;;16.70;59.10;;;;;;4937193;29;20036;-91
2021/09/15 07:01:01;;;;;;;2.35;1.63;;;16.70;59.20;;;;;;4941951;29;20435;-90
2021/09/15 07:03:27;;;;;;;2.40;1.27;;;16.70;58.60;;;;;;4942739;29;20027;-89
2021/09/15 07:05:52;;;;;;;1.52;1.10;;;16.70;58.50;;;;;;4942148;29;20097;-90
2021/09/15 07:08:18;;;;;;;2.45;1.50;;;16.70;58.90;;;;;;4958481;29;20028;-92
2021/09/15 07:10:44;;;;;;;2.95;1.50;;;16.80;57.80;;;;;;4942879;29;20030;-91
2021/09/15 07:13:10;;;;;;;2.30;1.58;;;16.80;57.80;;;;;;4942478;29;20471;-90
2021/09/15 07:15:36;;;;;;;2.67;1.52;;;16.90;58.30;;;;;;4944062;29;20078;-90
2021/09/15 07:18:02;;;;;;;2.15;1.48;;;17.00;57.20;;;;;;4941518;29;20038;-92
2021/09/15 07:20:28;;;;;;;2.47;1.45;;;17.10;55.60;;;;;;4942378;29;20043;-92
2021/09/15 07:22:54;;;;;;;1.90;1.48;;;17.10;55.30;;;;;;4944015;29;20505;-92
2021/09/15 07:25:20;;;;;;;2.28;1.65;;;17.10;55.50;;;;;;4957438;29;20019;-92
2021/09/15 07:27:46;;;;;;;1.75;1.50;;;17.00;54.80;;;;;;4955029;29;20038;-90
2021/09/15 07:30:12;;;;;;;2.33;1.67;;;17.00;56.30;;;;;;4954737;29;20419;-91
2021/09/15 07:32:38;;;;;;;3.10;1.65;;;17.20;55.90;;;;;;4944258;29;20059;-91
2021/09/15 07:35:05;;;;;;;4.05;1.63;;;17.30;56.30;;;;;;4941492;29;20039;-90
2021/09/15 07:37:31;;;;;;;3.38;2.05;;;17.40;56.60;;;;;;4943301;29;20067;-90
2021/09/15 07:39:58;;;;;;;2.75;2.00;;;17.40;55.30;;;;;;4939809;29;20048;-89
2021/09/15 07:42:24;;;;;;;2.25;1.90;;;17.40;54.80;;;;;;4939750;29;20039;-90
2021/09/15 07:44:51;;;;;;;3.42;1.70;;;17.40;55.30;;;;;;4956656;29;20046;-91
2021/09/15 07:47:18;;;;;;;5.28;2.10;;;17.40;55.40;;;;;;4940150;29;20028;-91
2021/09/15 07:49:47;;;;;;;2.85;1.98;;;17.40;54.60;;;;;;4940174;29;20127;-89
2021/09/15 07:52:12;;;;;;;2.25;1.60;;;17.30;53.80;;;;;;4939872;29;20035;-89
2021/09/15 07:54:38;;;;;;;2.22;1.60;;;17.30;55.20;;;;;;4957562;29;20027;-90
2021/09/15 07:57:07;;;;;;;3.28;1.75;;;17.50;55.90;;;;;;4941427;29;20019;-90
2021/09/15 07:59:33;;;;;;;1.85;1.70;;;17.70;55.40;;;;;;4941590;29;20063;-90
2021/09/15 08:01:59;;;;;;;2.72;2.05;;;17.80;53.90;;;;;;4941648;29;20038;-92
2021/09/15 08:04:25;;;;;;;2.60;2.20;;;17.80;53.10;;;;;;4939990;29;20023;-89
2021/09/15 08:06:51;;;;;;;2.92;1.98;;;17.70;52.40;;;;;;4938909;29;20042;-89
2021/09/15 08:09:17;;;;;;;2.90;1.92;;;17.60;52.40;;;;;;4957399;29;20482;-88
2021/09/15 08:11:42;;;;;;;4.03;2.47;;;17.40;52.10;;;;;;4956748;29;20027;-89
2021/09/15 08:14:08;;;;;;;2.40;2.03;;;17.40;52.80;;;;;;4956129;29;20023;-88
2021/09/15 08:16:34;;;;;;;2.05;1.80;;;17.40;53.10;;;;;;4956312;29;20027;-88
2021/09/15 08:19:02;;;;;;;2.53;1.70;;;17.40;53.20;;;;;;4939378;29;20432;-89
2021/09/15 08:21:28;;;;;;;2.55;1.70;;;17.40;53.30;;;;;;4940369;29;20118;-90
2021/09/15 08:23:54;;;;;;;1.40;1.30;;;17.50;53.40;;;;;;4941150;29;20031;-90
2021/09/15 08:26:20;;;;;;;2.75;1.70;;;17.60;53.60;;;;;;4956908;29;20193;-89
2021/09/15 08:28:46;;;;;;;2.88;1.70;;;17.60;53.20;;;;;;4938788;29;20042;-90
2021/09/15 08:31:16;;;;;;;2.88;1.90;;;17.70;53.00;;;;;;4958290;29;20031;-90
2021/09/15 08:33:44;;;;;;;3.00;2.00;;;17.80;51.90;;;;;;4948270;29;20035;-90
2021/09/15 08:36:10;;;;;;;2.55;1.50;;;17.80;52.40;;;;;;4955507;29;20055;-90
2021/09/15 08:38:36;;;;;;;4.85;1.88;;;17.90;51.90;;;;;;4939144;29;20062;-91
2021/09/15 08:41:01;;;;;;;2.40;1.60;;;17.90;51.70;;;;;;4939851;29;20027;-91
2021/09/15 08:43:29;;;;;;;2.40;1.40;;;17.90;52.40;;;;;;4957881;29;20039;-92
2021/09/15 08:45:57;;;;;;;4.22;2.45;;;18.00;52.50;;;;;;4941024;29;20028;-91
2021/09/15 08:48:24;;;;;;;3.60;2.65;;;18.00;51.20;;;;;;4939751;29;20023;-92
2021/09/15 08:50:50;;;;;;;2.38;1.88;;;17.90;51.10;;;;;;4940585;29;20038;-91
2021/09/15 08:53:17;;;;;;;2.65;1.55;;;17.90;52.00;;;;;;4957277;29;20378;-91
2021/09/15 08:55:46;;;;;;;2.05;1.67;;;18.00;52.50;;;;;;4939413;29;20027;-90
2021/09/15 08:58:16;;;;;;;3.60;1.70;;;18.10;52.40;;;;;;4939616;29;20031;-91
2021/09/15 09:00:43;;;;;;;3.05;2.25;;;18.30;52.30;;;;;;4948126;28;20027;-93
2021/09/15 09:03:09;;;;;;;2.67;2.03;;;18.40;52.10;;;;;;4983488;28;20061;-89
2021/09/15 09:05:36;;;;;;;1.85;1.63;;;18.50;51.80;;;;;;4943091;29;20035;-91
2021/09/15 09:08:02;;;;;;;2.63;1.60;;;18.50;51.30;;;;;;4959533;28;20027;-93
2021/09/15 09:10:35;;;;;;;3.42;2.10;;;18.50;51.60;;;;;;4940304;29;20039;-90
2021/09/15 09:13:01;;;;;;;3.45;2.30;;;18.60;51.70;;;;;;4939622;29;20035;-90
2021/09/15 09:15:28;;;;;;;2.15;1.92;;;18.50;51.10;;;;;;4957809;29;20093;-94
2021/09/15 09:18:17;;;;;;;3.63;2.35;;;18.50;51.40;;;;;;4937402;29;20034;-93
2021/09/15 09:20:44;;;;;;;2.75;2.00;;;18.40;51.30;;;;;;4928770;29;20228;-92
2021/09/15 09:23:20;;;;;;;2.00;1.77;;;18.40;51.70;;;;;;4957676;29;20035;-92
2021/09/15 09:26:23;;;;;;;2.78;1.90;;;18.40;51.70;;;;;;4947703;28;20050;-93
2021/09/15 09:28:53;;;;;;;2.70;2.05;;;18.40;51.40;;;;;;4952568;29;20071;-92
2021/09/15 09:31:20;;;;;;;4.90;1.60;;;18.50;52.00;;;;;;4941321;29;20086;-90
2021/09/15 09:34:04;;;;;;;2.92;2.20;;;18.50;51.70;;;;;;4912674;28;20421;-91
2021/09/15 09:36:30;;;;;;;3.38;2.20;;;18.60;50.60;;;;;;4961192;28;20023;-93
2021/09/15 09:38:56;;;;;;;3.53;2.47;;;18.50;50.90;;;;;;4907981;29;20079;-92
2021/09/15 09:41:22;;;;;;;2.63;2.08;;;18.50;50.70;;;;;;4935963;29;20032;-92
2021/09/15 09:43:52;;;;;;;2.72;2.17;;;18.50;51.30;;;;;;4941142;29;20027;-91
2021/09/15 09:46:41;;;;;;;2.72;1.70;;;18.60;51.10;;;;;;4954952;28;20373;-90
2021/09/15 09:49:09;;;;;;;4.07;2.30;;;18.60;51.30;;;;;;4928141;29;20023;-89
2021/09/15 09:51:45;;;;;;;3.78;1.83;;;18.60;51.70;;;;;;4939266;28;20442;-91
2021/09/15 09:54:27;;;;;;;3.47;2.05;;;18.70;51.60;;;;;;4940236;28;20061;-91
2021/09/15 09:56:58;;;;;;;3.58;2.35;;;18.80;51.40;;;;;;4942828;29;20027;-93
2021/09/15 09:59:26;;;;;;;1.65;1.50;;;18.90;51.40;;;;;;4941329;28;20043;-90
2021/09/15 10:02:02;;;;;;;5.18;2.00;;;18.90;51.20;;;;;;4924628;29;20126;-91
2021/09/15 10:04:32;;;;;;;3.13;1.80;;;18.90;50.70;;;;;;4923828;29;20035;-92
2021/09/15 10:07:01;;;;;;;1.92;1.55;;;19.00;50.70;;;;;;4947856;29;20028;-91
2021/09/15 10:09:27;;;;;;;6.93;2.17;;;19.00;50.50;;;;;;4936744;29;20546;-92
2021/09/15 10:11:54;;;;;;;7.57;2.08;;;19.10;50.30;;;;;;4936502;29;20477;-91
2021/09/15 10:14:20;;;;;;;3.90;2.35;;;19.00;50.30;;;;;;4935571;28;20129;-92
2021/09/15 10:16:54;;;;;;;3.08;1.98;;;19.10;50.40;;;;;;4937063;29;20054;-91
2021/09/15 10:19:28;;;;;;;2.17;1.70;;;19.10;50.30;;;;;;4954527;28;20050;-91
2021/09/15 10:21:59;;;;;;;2.78;1.95;;;19.10;50.60;;;;;;4938561;29;20363;-91
2021/09/15 10:24:49;;;;;;;2.65;1.90;;;19.10;50.70;;;;;;4938155;29;20083;-92
2021/09/15 10:27:16;;;;;;;2.95;2.17;;;19.20;50.40;;;;;;4933081;29;20062;-92
2021/09/15 10:29:43;;;;;;;2.45;1.92;;;19.20;50.60;;;;;;4940138;29;20042;-91
2021/09/15 10:32:13;;;;;;;2.35;1.70;;;19.30;50.60;;;;;;4956534;28;20360;-91
2021/09/15 10:34:39;;;;;;;3.08;2.15;;;19.30;50.60;;;;;;4941184;29;20036;-92
2021/09/15 10:37:09;;;;;;;2.40;2.20;;;19.30;50.50;;;;;;4941568;29;20047;-92
2021/09/15 10:39:55;;;;;;;2.28;1.90;;;19.30;50.20;;;;;;4941337;28;20039;-92
2021/09/15 10:42:36;;;;;;;4.43;2.08;;;19.30;50.30;;;;;;4942626;29;20031;-92
2021/09/15 10:45:22;;;;;;;3.90;1.80;;;19.40;50.70;;;;;;4938796;29;20485;-91
2021/09/15 10:47:50;;;;;;;2.13;1.83;;;19.50;51.00;;;;;;4938582;28;20461;-92
2021/09/15 10:50:28;;;;;;;1.75;1.65;;;19.50;50.70;;;;;;4939010;29;20133;-93
2021/09/15 10:53:15;;;;;;;3.03;2.10;;;19.70;50.60;;;;;;4939647;29;20482;-92
2021/09/15 10:55:53;;;;;;;1.80;1.67;;;19.70;48.70;;;;;;4941873;29;20027;-91
2021/09/15 10:58:24;;;;;;;1.98;1.77;;;19.70;49.60;;;;;;4942511;28;20035;-92
2021/09/15 11:00:58;;;;;;;3.90;2.67;;;19.80;49.80;;;;;;4942915;29;20039;-92
2021/09/15 11:03:24;;;;;;;;;;;19.80;49.20;;;;;;4942783;29;20066;-92
2021/09/15 11:05:51;;;;;;;1.73;1.48;;;19.80;49.80;;;;;;4941960;29;19907;-91
2021/09/15 11:08:38;;;;;;;3.75;2.05;;;19.70;50.50;;;;;;4942036;29;20031;-91
2021/09/15 11:11:11;;;;;;;3.97;1.88;;;19.70;49.80;;;;;;4959714;28;20058;-92
2021/09/15 11:13:37;;;;;;;2.97;1.75;;;19.60;49.50;;;;;;4941870;29;20027;-92
2021/09/15 11:16:24;;;;;;;5.18;1.98;;;19.70;49.70;;;;;;4958496;28;20029;-91
2021/09/15 11:19:12;;;;;;;4.85;1.83;;;19.70;49.90;;;;;;4941755;29;20110;-92
2021/09/15 11:21:41;;;;;;;2.47;1.67;;;19.70;48.60;;;;;;4941756;29;20031;-90
2021/09/15 11:24:11;;;;;;;3.08;1.88;;;19.80;48.80;;;;;;4941789;29;20031;-91
2021/09/15 11:26:44;;;;;;;2.08;1.85;;;19.80;48.70;;;;;;4942017;29;20028;-92
2021/09/15 11:29:11;;;;;;;3.22;2.00;;;19.80;48.70;;;;;;4943601;29;20039;-92
2021/09/15 11:31:39;;;;;;;1.70;1.60;;;19.80;48.40;;;;;;4941657;28;20130;-92
2021/09/15 11:34:13;;;;;;;5.70;1.75;;;19.80;48.80;;;;;;4943341;29;20114;-92
2021/09/15 11:36:40;;;;;;;3.20;1.90;;;19.90;48.90;;;;;;4942787;29;20027;-92
2021/09/15 11:39:07;;;;;;;2.08;1.77;;;20.00;48.70;;;;;;4940741;29;20046;-92
2021/09/15 11:41:34;;;;;;;2.72;2.10;;;20.00;47.90;;;;;;4941096;29;20482;-93
2021/09/15 11:44:03;;;;;;;2.88;2.00;;;20.10;46.70;;;;;;4942899;29;20438;-90
2021/09/15 11:46:38;;;;;;;2.28;2.08;;;20.00;46.20;;;;;;4945635;29;20031;-92
2021/09/15 11:49:09;;;;;;;3.83;1.95;;;20.10;45.50;;;;;;4947279;29;20038;-90
2021/09/15 11:51:40;;;;;;;1.83;1.73;;;20.10;45.40;;;;;;4964175;29;20031;-94
2021/09/15 11:54:11;;;;;;;2.80;1.98;;;20.10;43.00;;;;;;4942268;29;20035;-93
2021/09/15 11:59:23;;;;;;;1.95;1.77;;;20.10;43.90;;;;;;4958521;29;20073;-91
2021/09/15 12:01:51;;;;;;;3.25;1.88;;;20.10;43.90;;;;;;4942234;29;20122;-90
2021/09/15 12:04:20;;;;;;;4.90;2.22;;;20.20;43.90;;;;;;4972037;28;20119;-90
2021/09/15 12:06:48;;;;;;;1.70;1.60;;;20.20;43.20;;;;;;4970478;28;20103;-92
2021/09/15 12:09:14;;;;;;;3.53;2.40;;;20.30;43.50;;;;;;4940119;29;20070;-91
2021/09/15 12:11:44;;;;;;;3.05;2.20;;;20.30;43.20;;;;;;4957771;29;20050;-91
2021/09/15 12:14:15;;;;;;;5.05;2.47;;;20.30;43.80;;;;;;4941706;29;20386;-90
2021/09/15 12:16:47;;;;;;;3.88;2.60;;;20.20;44.10;;;;;;4941401;29;20027;-91
2021/09/15 12:19:55;;;;;;;3.35;2.20;;;20.20;44.20;;;;;;4928317;29;20054;-92
2021/09/15 12:22:28;;;;;;;2.78;1.90;;;20.20;44.30;;;;;;4941246;29;20335;-92
2021/09/15 12:25:09;;;;;;;;;;;20.30;44.10;;;;;;4951188;29;20031;-93
2021/09/15 12:27:41;;;;;;;3.35;2.60;;;20.40;42.20;;;;;;4953038;29;19897;-92
2021/09/15 12:30:46;;;;;;;3.75;2.25;;;20.50;44.10;;;;;;4960084;29;20058;-91
2021/09/15 12:33:22;;;;;;;4.25;2.38;;;20.60;42.60;;;;;;4959347;29;20031;-91
2021/09/15 12:36:06;;;;;;;2.78;2.30;;;20.60;42.60;;;;;;4961064;29;20116;-91
2021/09/15 12:38:43;;;;;;;2.00;1.80;;;20.60;42.80;;;;;;4956436;29;20044;-90
2021/09/15 12:41:09;;;;;;;4.88;2.20;;;20.70;42.90;;;;;;4949806;29;20036;-90
2021/09/15 12:43:34;;;;;;;3.55;2.30;;;20.80;42.10;;;;;;4938940;29;20079;-91
2021/09/15 12:46:00;;;;;;;2.60;2.10;;;20.90;41.50;;;;;;4936209;29;20067;-91
2021/09/15 12:48:26;;;;;;;4.40;2.05;;;21.10;41.90;;;;;;4936680;29;20414;-91
2021/09/15 12:50:52;;;;;;;5.00;2.63;;;21.20;41.80;;;;;;4936000;29;20095;-90
2021/09/15 12:53:18;;;;;;;3.40;2.50;;;21.30;40.90;;;;;;4936400;29;20027;-89
2021/09/15 12:55:49;;;;;;;5.10;2.30;;;21.40;41.00;;;;;;4937504;29;20027;-89
2021/09/15 12:58:26;;;;;;;3.08;2.38;;;21.60;40.60;;;;;;4936176;29;20113;-89
2021/09/15 13:00:53;;;;;;;4.70;2.00;;;21.70;40.50;;;;;;4936662;29;20035;-89